createdAt,value
2023-03-21T00:02:14.750Z,53.68
2023-03-21T00:04:52.322Z,53.21
2023-03-21T00:07:30.427Z,53.17
2023-03-21T00:10:16.641Z,52.75
2023-03-21T00:12:58.940Z,52.94
2023-03-21T00:15:39.275Z,53.12
2023-03-21T00:18:16.314Z,53.41
2023-03-21T00:21:39.270Z,53.65
2023-03-21T00:24:06.991Z,53.16
2023-03-21T00:26:42.620Z,53.28
2023-03-21T00:29:17.892Z,52.97
2023-03-21T00:31:54.000Z,53.04
2023-03-21T00:34:31.752Z,52.95
2023-03-21T00:37:26.184Z,52.99
2023-03-21T00:39:58.916Z,52.96
2023-03-21T00:42:31.627Z,52.71
2023-03-21T00:45:22.452Z,52.57
2023-03-21T00:47:55.076Z,53.03
2023-03-21T00:50:23.820Z,53.01
2023-03-21T00:53:04.955Z,53.01
2023-03-21T00:55:36.209Z,52.81
2023-03-21T00:58:04.027Z,52.79
2023-03-21T01:00:44.463Z,52.71
2023-03-21T01:03:25.225Z,52.78
2023-03-21T01:06:04.830Z,53.10
2023-03-21T01:08:54.517Z,52.67
2023-03-21T01:11:29.044Z,52.82
2023-03-21T01:14:18.564Z,52.59
2023-03-21T01:16:51.867Z,52.84
2023-03-21T01:19:30.840Z,52.97
2023-03-21T01:22:03.031Z,52.88
2023-03-21T01:24:40.585Z,52.64
2023-03-21T01:27:16.609Z,52.92
2023-03-21T01:29:43.929Z,52.99
2023-03-21T01:32:17.200Z,53.01
2023-03-21T01:34:56.219Z,52.79
2023-03-21T01:37:27.144Z,52.88
2023-03-21T01:39:54.427Z,52.81
2023-03-21T01:42:22.438Z,52.40
2023-03-21T01:45:00.646Z,52.38
2023-03-21T01:47:36.813Z,52.68
2023-03-21T01:50:29.213Z,52.64
2023-03-21T01:53:24.970Z,52.33
2023-03-21T01:55:54.448Z,52.71
2023-03-21T01:58:45.780Z,52.48
2023-03-21T02:01:42.515Z,52.88
2023-03-21T02:04:20.065Z,52.96
2023-03-21T02:07:18.760Z,52.83
2023-03-21T02:09:55.936Z,52.86
2023-03-21T02:12:29.787Z,53.06
2023-03-21T02:15:01.308Z,52.69
2023-03-21T02:18:11.639Z,52.54
2023-03-21T02:21:34.653Z,53.05
2023-03-21T02:24:33.096Z,53.11
2023-03-21T02:27:06.917Z,53.06
2023-03-21T02:30:02.385Z,52.78
2023-03-21T02:33:02.650Z,53.10
2023-03-21T02:35:47.275Z,52.72
2023-03-21T02:38:43.745Z,53.26
2023-03-21T02:41:29.878Z,52.96
2023-03-21T02:44:20.038Z,52.91
2023-03-21T02:47:06.484Z,53.28
2023-03-21T02:49:53.448Z,53.36
2023-03-21T02:52:38.689Z,52.92
2023-03-21T02:55:18.565Z,52.82
2023-03-21T02:58:12.766Z,53.10
2023-03-21T03:00:59.467Z,53.16
2023-03-21T03:03:38.351Z,53.19
2023-03-21T03:06:46.832Z,53.74
2023-03-21T03:09:38.705Z,54.05
2023-03-21T03:12:44.684Z,54.32
2023-03-21T03:15:38.128Z,53.86
2023-03-21T03:18:51.575Z,53.47
2023-03-21T03:21:34.735Z,53.36
2023-03-21T03:24:24.638Z,53.59
2023-03-21T03:27:14.688Z,53.78
2023-03-21T03:29:56.276Z,54.04
2023-03-21T03:33:02.107Z,53.92
2023-03-21T03:35:42.909Z,54.26
2023-03-21T03:38:17.549Z,53.83
2023-03-21T03:40:55.062Z,53.95
2023-03-21T03:43:48.362Z,53.34
2023-03-21T03:46:24.558Z,53.44
2023-03-21T03:49:06.864Z,54.04
2023-03-21T03:52:16.627Z,54.32
2023-03-21T03:54:55.172Z,53.88
2023-03-21T03:57:30.370Z,54.00
2023-03-21T04:00:13.965Z,54.32
2023-03-21T04:02:50.847Z,53.91
2023-03-21T04:05:29.546Z,53.91
2023-03-21T04:07:57.630Z,54.08
2023-03-21T04:10:38.884Z,53.94
2023-03-21T04:13:16.305Z,54.28
2023-03-21T04:16:11.859Z,53.82
2023-03-21T04:18:52.960Z,54.00
2023-03-21T04:21:34.767Z,54.01
2023-03-21T04:24:10.492Z,53.90
2023-03-21T04:26:39.632Z,53.57
2023-03-21T04:29:49.195Z,54.04
2023-03-21T04:32:49.227Z,53.67
2023-03-21T04:35:27.379Z,53.74
2023-03-21T04:37:56.220Z,53.19
2023-03-21T04:40:29.600Z,53.35
2023-03-21T04:43:04.133Z,53.63
2023-03-21T04:45:37.609Z,53.96
2023-03-21T04:48:10.329Z,54.05
2023-03-21T04:50:49.262Z,54.18
2023-03-21T04:53:24.985Z,53.99
2023-03-21T04:55:58.015Z,53.92
2023-03-21T04:58:33.347Z,53.93
2023-03-21T05:01:09.695Z,54.13
2023-03-21T05:03:41.006Z,54.07
2023-03-21T05:06:11.123Z,53.97
2023-03-21T05:08:45.765Z,54.17
2023-03-21T05:11:15.629Z,54.09
2023-03-21T05:13:44.624Z,53.70
2023-03-21T05:16:12.967Z,53.45
2023-03-21T05:18:42.969Z,53.54
2023-03-21T05:21:29.665Z,53.55
2023-03-21T05:24:01.587Z,53.58
2023-03-21T05:26:33.762Z,53.82
2023-03-21T05:29:17.451Z,53.87
2023-03-21T05:31:53.797Z,53.52
2023-03-21T05:34:30.468Z,53.57
2023-03-21T05:37:03.426Z,53.56
2023-03-21T05:39:54.735Z,53.74
2023-03-21T05:42:35.874Z,53.39
2023-03-21T05:45:16.110Z,53.36
2023-03-21T05:47:48.369Z,54.04
2023-03-21T05:50:19.466Z,53.61
2023-03-21T05:53:11.907Z,53.88
2023-03-21T05:55:41.630Z,53.84
2023-03-21T06:01:20.322Z,53.49
2023-03-21T06:04:00.542Z,53.33
2023-03-21T06:06:46.414Z,53.35
2023-03-21T06:09:23.503Z,53.96
2023-03-21T06:12:06.980Z,53.57
2023-03-21T06:15:09.126Z,53.47
2023-03-21T06:17:48.129Z,53.61
2023-03-21T06:20:28.032Z,53.61
2023-03-21T06:23:11.163Z,53.72
2023-03-21T06:25:38.682Z,53.71
2023-03-21T06:28:07.272Z,53.69
2023-03-21T06:30:39.275Z,53.89
2023-03-21T06:33:27.666Z,53.60
2023-03-21T06:35:56.749Z,53.34
2023-03-21T06:38:25.810Z,53.69
2023-03-21T06:40:54.377Z,53.55
2023-03-21T06:43:29.695Z,53.83
2023-03-21T06:45:57.092Z,53.76
2023-03-21T06:48:27.569Z,53.84
2023-03-21T06:50:56.666Z,53.55
2023-03-21T06:53:30.017Z,53.38
2023-03-21T06:56:21.515Z,52.91
2023-03-21T06:58:50.038Z,53.17
2023-03-21T07:01:43.318Z,52.85
2023-03-21T07:04:11.044Z,52.49
2023-03-21T07:06:39.401Z,52.05
2023-03-21T07:09:07.235Z,51.66
2023-03-21T07:11:37.153Z,52.14
2023-03-21T07:14:07.674Z,51.70
2023-03-21T07:16:35.109Z,51.77
2023-03-21T07:19:02.289Z,51.50
2023-03-21T07:21:29.436Z,51.39
2023-03-21T07:23:56.707Z,51.68
2023-03-21T07:26:26.917Z,51.36
2023-03-21T07:28:55.828Z,50.88
2023-03-21T07:31:26.149Z,50.80
2023-03-21T07:33:53.981Z,51.09
2023-03-21T07:36:21.543Z,50.78
2023-03-21T07:38:48.663Z,50.47
2023-03-21T07:41:20.890Z,50.56
2023-03-21T07:43:50.809Z,50.55
2023-03-21T07:46:19.022Z,50.88
2023-03-21T07:48:48.877Z,50.56
2023-03-21T07:51:15.997Z,49.87
2023-03-21T07:53:43.988Z,49.97
2023-03-21T07:56:11.193Z,49.69
2023-03-21T07:58:38.234Z,49.82
2023-03-21T08:01:05.530Z,49.43
2023-03-21T08:03:33.958Z,49.25
2023-03-21T08:06:01.753Z,49.49
2023-03-21T08:08:28.919Z,48.96
2023-03-21T08:10:56.255Z,49.45
2023-03-21T08:13:23.462Z,49.13
2023-03-21T08:15:50.643Z,48.86
2023-03-21T08:18:17.674Z,48.88
2023-03-21T08:20:45.127Z,48.80
2023-03-21T08:23:13.992Z,47.94
2023-03-21T08:25:41.254Z,47.82
2023-03-21T08:28:10.764Z,47.56
2023-03-21T08:30:38.311Z,47.56
2023-03-21T08:33:05.407Z,47.05
2023-03-21T08:35:32.647Z,46.36
2023-03-21T08:38:02.545Z,46.04
2023-03-21T08:40:29.856Z,46.49
2023-03-21T08:42:56.866Z,46.03
2023-03-21T08:45:24.724Z,45.23
2023-03-21T08:47:51.900Z,45.03
2023-03-21T08:50:25.080Z,44.53
2023-03-21T08:52:52.819Z,45.00
2023-03-21T08:55:20.294Z,43.96
2023-03-21T08:57:47.341Z,44.31
2023-03-21T09:00:18.678Z,43.36
2023-03-21T09:02:47.127Z,43.29
2023-03-21T09:05:14.798Z,43.27
2023-03-21T09:07:42.044Z,43.02
2023-03-21T09:10:23.077Z,42.62
2023-03-21T09:12:53.113Z,42.85
2023-03-21T09:15:22.123Z,42.66
2023-03-21T09:17:53.302Z,42.26
2023-03-21T09:20:26.530Z,42.01
2023-03-21T09:22:54.605Z,42.14
2023-03-21T09:25:26.405Z,42.34
2023-03-21T09:27:54.360Z,42.60
2023-03-21T09:30:26.334Z,42.68
2023-03-21T09:32:55.969Z,42.24
2023-03-21T09:35:27.820Z,42.16
2023-03-21T09:37:57.623Z,41.34
2023-03-21T09:40:52.981Z,41.14
2023-03-21T09:43:41.702Z,41.31
2023-03-21T09:46:23.721Z,41.02
2023-03-21T09:48:59.956Z,41.49
2023-03-21T09:51:32.209Z,41.48
2023-03-21T09:54:07.526Z,41.02
2023-03-21T09:56:39.291Z,40.97
2023-03-21T09:59:09.313Z,40.85
2023-03-21T10:01:42.230Z,41.15
2023-03-21T10:04:16.917Z,41.29
2023-03-21T10:06:46.027Z,40.89
2023-03-21T10:09:24.858Z,41.04
2023-03-21T10:11:52.980Z,40.59
2023-03-21T10:14:31.538Z,41.39
2023-03-21T10:17:17.868Z,42.00
2023-03-21T10:19:47.265Z,42.13
2023-03-21T10:22:15.977Z,42.21
2023-03-21T10:24:43.192Z,42.60
2023-03-21T10:27:13.468Z,42.18
2023-03-21T10:29:48.124Z,40.90
2023-03-21T10:32:17.858Z,40.67
2023-03-21T10:34:51.993Z,40.98
2023-03-21T10:37:19.552Z,42.15
2023-03-21T10:39:51.518Z,43.70
2023-03-21T10:42:24.013Z,45.19
2023-03-21T10:44:57.717Z,45.09
2023-03-21T10:47:26.675Z,44.66
2023-03-21T10:50:07.306Z,44.92
2023-03-21T10:52:37.710Z,46.50
2023-03-21T10:55:18.961Z,46.29
2023-03-21T10:57:47.687Z,46.37
2023-03-21T11:00:24.530Z,47.24
2023-03-21T11:02:54.151Z,46.37
2023-03-21T11:05:37.017Z,47.46
2023-03-21T11:08:10.699Z,46.99
2023-03-21T11:10:50.330Z,46.98
2023-03-21T11:13:33.146Z,48.52
2023-03-21T11:16:25.075Z,46.61
2023-03-21T11:18:56.993Z,46.14
2023-03-21T11:21:29.824Z,45.56
2023-03-21T11:23:57.601Z,46.61
2023-03-21T11:26:32.493Z,47.46
2023-03-21T11:28:59.961Z,47.12
2023-03-21T11:31:44.206Z,47.38
2023-03-21T11:34:50.158Z,48.00
2023-03-21T11:37:46.621Z,47.78
2023-03-21T11:40:13.742Z,48.24
2023-03-21T11:42:44.098Z,47.28
2023-03-21T11:45:17.990Z,48.14
2023-03-21T11:47:47.406Z,47.75
2023-03-21T11:50:19.292Z,47.90
2023-03-21T11:53:03.608Z,48.71
2023-03-21T11:55:46.503Z,48.83
2023-03-21T11:58:36.399Z,49.09
2023-03-21T12:01:42.355Z,49.67
2023-03-21T12:04:39.748Z,48.79
2023-03-21T12:07:26.587Z,47.77
2023-03-21T12:10:26.160Z,46.84
2023-03-21T12:13:14.737Z,46.86
2023-03-21T12:15:55.450Z,45.87
2023-03-21T12:18:46.290Z,46.77
2023-03-21T12:21:19.494Z,45.86
2023-03-21T12:23:58.987Z,44.94
2023-03-21T12:26:31.539Z,45.07
2023-03-21T12:29:13.174Z,45.04
2023-03-21T12:31:43.413Z,45.32
2023-03-21T12:35:09.502Z,44.96
2023-03-21T12:38:16.297Z,44.06
2023-03-21T12:40:58.747Z,43.01
2023-03-21T12:43:47.930Z,43.18
2023-03-21T12:46:27.091Z,43.22
2023-03-21T12:49:21.449Z,43.35
2023-03-21T12:51:52.181Z,43.31
2023-03-21T12:54:32.471Z,43.17
2023-03-21T12:57:12.185Z,42.47
2023-03-21T12:59:49.691Z,42.38
2023-03-21T13:02:31.619Z,42.21
2023-03-21T13:05:18.098Z,42.54
2023-03-21T13:07:52.704Z,43.54
2023-03-21T13:10:21.942Z,43.88
2023-03-21T13:13:01.023Z,43.72
2023-03-21T13:15:43.124Z,43.21
2023-03-21T13:18:38.968Z,43.23
2023-03-21T13:21:16.902Z,46.23
2023-03-21T13:24:17.554Z,46.47
2023-03-21T13:27:01.255Z,47.01
2023-03-21T13:29:33.372Z,47.08
2023-03-21T13:32:23.782Z,46.05
2023-03-21T13:35:00.277Z,45.80
2023-03-21T13:37:34.305Z,45.95
2023-03-21T13:40:10.890Z,46.98
2023-03-21T13:42:48.682Z,46.00
2023-03-21T13:45:27.710Z,45.88
2023-03-21T13:48:04.546Z,45.09
2023-03-21T13:51:03.225Z,44.31
2023-03-21T13:53:44.564Z,44.23
2023-03-21T13:56:17.697Z,45.49
2023-03-21T13:58:44.705Z,45.98
2023-03-21T14:01:27.344Z,46.04
2023-03-21T14:04:19.467Z,45.58
2023-03-21T14:06:59.710Z,46.57
2023-03-21T14:09:35.664Z,47.23
2023-03-21T14:12:07.897Z,45.52
2023-03-21T14:14:42.724Z,45.20
2023-03-21T14:17:23.300Z,46.31
2023-03-21T14:20:37.013Z,47.26
2023-03-21T14:23:08.308Z,47.21
2023-03-21T14:25:46.810Z,47.65
2023-03-21T14:28:25.439Z,47.76
2023-03-21T14:31:01.878Z,47.90
2023-03-21T14:33:44.259Z,48.54
2023-03-21T14:36:15.829Z,48.61
2023-03-21T14:38:45.627Z,49.73
2023-03-21T14:41:25.272Z,49.70
2023-03-21T14:44:06.982Z,49.54
2023-03-21T14:46:34.162Z,49.92
2023-03-21T14:49:35.295Z,50.36
2023-03-21T14:52:10.824Z,49.77
2023-03-21T14:54:47.171Z,51.00
2023-03-21T14:57:20.014Z,50.08
2023-03-21T14:59:50.952Z,49.14
2023-03-21T15:02:24.323Z,49.56
2023-03-21T15:05:06.505Z,49.52
2023-03-21T15:07:36.468Z,50.05
2023-03-21T15:10:18.242Z,49.47
2023-03-21T15:12:59.219Z,48.52
2023-03-21T15:15:28.848Z,48.24
2023-03-21T15:18:06.373Z,49.58
2023-03-21T15:20:39.809Z,48.75
2023-03-21T15:23:10.811Z,48.35
2023-03-21T15:25:39.578Z,48.58
2023-03-21T15:28:07.186Z,48.90
2023-03-21T15:30:35.382Z,48.48
2023-03-21T15:33:13.560Z,48.53
2023-03-21T15:35:46.243Z,48.53
2023-03-21T15:38:49.247Z,49.08
2023-03-21T15:41:19.450Z,49.53
2023-03-21T15:44:01.944Z,50.39
2023-03-21T15:46:42.249Z,50.45
2023-03-21T15:49:13.322Z,50.71
2023-03-21T15:51:48.354Z,51.31
2023-03-21T15:54:41.638Z,51.52
2023-03-21T15:57:25.535Z,51.01
2023-03-21T15:59:56.825Z,51.13
2023-03-21T16:02:30.855Z,50.69
2023-03-21T16:05:24.507Z,51.59
2023-03-21T16:07:52.415Z,51.92
2023-03-21T16:10:38.318Z,52.13
2023-03-21T16:13:06.988Z,52.71
2023-03-21T16:15:34.224Z,52.58
2023-03-21T16:18:08.518Z,52.14
2023-03-21T16:20:42.728Z,51.82
2023-03-21T16:23:16.215Z,51.84
2023-03-21T16:25:43.987Z,51.89
2023-03-21T16:28:16.273Z,52.40
2023-03-21T16:30:44.013Z,52.58
2023-03-21T16:33:12.550Z,51.32
2023-03-21T16:35:40.672Z,51.50
2023-03-21T16:38:07.864Z,50.50
2023-03-21T16:40:38.293Z,49.81
2023-03-21T16:43:06.053Z,50.08
2023-03-21T16:45:33.400Z,49.71
2023-03-21T16:48:00.872Z,49.87
2023-03-21T16:50:37.237Z,51.55
2023-03-21T16:53:06.850Z,51.49
2023-03-21T16:55:38.235Z,50.97
2023-03-21T16:58:06.726Z,50.66
2023-03-21T17:00:38.309Z,51.71
2023-03-21T17:03:19.339Z,50.80
2023-03-21T17:05:49.363Z,51.65
2023-03-21T17:08:24.305Z,52.04
2023-03-21T17:10:59.254Z,52.09
2023-03-21T17:13:26.552Z,52.06
2023-03-21T17:16:01.070Z,52.27
2023-03-21T17:18:31.123Z,51.78
2023-03-21T17:21:18.428Z,51.62
2023-03-21T17:23:49.529Z,51.42
2023-03-21T17:26:24.257Z,53.22
2023-03-21T17:28:54.178Z,51.80
2023-03-21T17:31:24.123Z,51.98
2023-03-21T17:34:06.835Z,52.08
2023-03-21T17:36:53.484Z,52.25
2023-03-21T17:39:32.263Z,52.07
2023-03-21T17:41:59.622Z,52.67
2023-03-21T17:44:40.433Z,52.63
2023-03-21T17:47:07.780Z,52.65
2023-03-21T17:49:34.790Z,53.60
2023-03-21T17:52:07.334Z,52.66
2023-03-21T17:54:34.412Z,53.04
2023-03-21T17:57:01.503Z,52.79
2023-03-21T17:59:31.074Z,53.58
2023-03-21T18:01:58.378Z,53.56
2023-03-21T18:04:28.731Z,52.72
2023-03-21T18:07:01.798Z,53.28
2023-03-21T18:09:35.042Z,53.55
2023-03-21T18:12:11.614Z,54.51
2023-03-21T18:14:42.545Z,54.17
2023-03-21T18:17:19.392Z,53.51
2023-03-21T18:19:47.921Z,52.93
2023-03-21T18:22:14.999Z,53.32
2023-03-21T18:24:42.405Z,53.30
2023-03-21T18:27:10.170Z,53.93
2023-03-21T18:30:22.890Z,54.30
2023-03-21T18:32:40.308Z,54.19
2023-03-21T18:35:08.228Z,54.92
2023-03-21T18:37:35.580Z,55.14
2023-03-21T18:40:05.524Z,54.72
2023-03-21T18:42:36.906Z,54.08
2023-03-21T18:45:08.114Z,55.03
2023-03-21T18:47:35.247Z,54.16
2023-03-21T18:50:16.708Z,54.18
2023-03-21T18:52:47.543Z,55.76
2023-03-21T18:55:14.983Z,54.26
2023-03-21T18:57:43.344Z,54.87
2023-03-21T19:00:17.373Z,55.21
2023-03-21T19:02:48.484Z,54.72
2023-03-21T19:05:19.668Z,55.09
2023-03-21T19:07:48.116Z,54.84
2023-03-21T19:10:19.565Z,54.84
2023-03-21T19:12:54.925Z,55.50
2023-03-21T19:15:33.084Z,55.53
2023-03-21T19:20:56.460Z,56.19
2023-03-21T19:23:23.597Z,56.49
2023-03-21T19:25:51.603Z,57.24
2023-03-21T19:28:19.859Z,57.75
2023-03-21T19:30:50.050Z,57.08
2023-03-21T19:33:20.242Z,56.27
2023-03-21T19:35:48.991Z,56.33
2023-03-21T19:38:19.425Z,55.13
2023-03-21T19:40:46.957Z,55.48
2023-03-21T19:43:32.262Z,57.61
2023-03-21T19:46:03.356Z,57.28
2023-03-21T19:48:31.010Z,57.18
2023-03-21T19:51:26.789Z,56.97
2023-03-21T19:53:52.717Z,57.11
2023-03-21T19:56:27.320Z,57.62
2023-03-21T19:58:57.168Z,57.19
2023-03-21T20:01:25.372Z,57.31
2023-03-21T20:03:52.852Z,57.51
2023-03-21T20:06:22.494Z,58.13
2023-03-21T20:09:34.170Z,58.46
2023-03-21T20:11:46.735Z,57.84
2023-03-21T20:14:20.303Z,57.33
2023-03-21T20:16:49.789Z,57.52
2023-03-21T20:19:17.517Z,57.54
2023-03-21T20:21:52.312Z,58.43
2023-03-21T20:24:22.948Z,57.60
2023-03-21T20:26:53.776Z,57.62
2023-03-21T20:32:08.740Z,57.70
2023-03-21T20:34:37.055Z,57.51
2023-03-21T20:37:06.170Z,57.60
2023-03-21T20:39:37.070Z,57.30
2023-03-21T20:42:05.376Z,57.37
2023-03-21T20:44:57.749Z,57.61
2023-03-21T20:47:25.754Z,56.94
2023-03-21T20:49:57.448Z,57.68
2023-03-21T20:52:57.442Z,58.10
2023-03-21T20:55:24.611Z,59.44
2023-03-21T20:57:54.972Z,58.83
2023-03-21T21:00:22.509Z,57.74
2023-03-21T21:02:50.444Z,57.36
2023-03-21T21:05:35.878Z,57.33
2023-03-21T21:08:06.734Z,57.61
2023-03-21T21:11:00.516Z,58.16
2023-03-21T21:13:26.542Z,57.43
2023-03-21T21:15:54.547Z,57.76
2023-03-21T21:18:21.985Z,57.25
2023-03-21T21:20:56.787Z,57.99
2023-03-21T21:23:25.562Z,56.95
2023-03-21T21:25:54.586Z,56.11
2023-03-21T21:28:23.494Z,56.17
2023-03-21T21:30:56.147Z,55.81
2023-03-21T21:33:23.583Z,56.40
2023-03-21T21:35:56.593Z,56.41
2023-03-21T21:38:24.033Z,55.98
2023-03-21T21:40:54.026Z,55.85
2023-03-21T21:43:21.757Z,56.01
2023-03-21T21:45:52.066Z,56.33
2023-03-21T21:48:19.343Z,56.04
2023-03-21T21:50:48.972Z,55.53
2023-03-21T21:53:29.469Z,55.41
2023-03-21T21:56:02.116Z,55.08
2023-03-21T21:58:29.969Z,54.79
2023-03-21T22:01:05.477Z,54.60
2023-03-21T22:03:44.290Z,54.53
2023-03-21T22:06:11.783Z,54.36
2023-03-21T22:08:39.441Z,54.05
2023-03-21T22:11:06.872Z,54.06
2023-03-21T22:13:36.609Z,54.10
2023-03-21T22:16:06.692Z,53.93
2023-03-21T22:18:39.211Z,54.14
2023-03-21T22:21:07.480Z,53.88
2023-03-21T22:23:34.854Z,53.94
2023-03-21T22:26:02.233Z,54.15
2023-03-21T22:28:29.257Z,54.04
2023-03-21T22:30:57.597Z,54.00
2023-03-21T22:33:27.306Z,54.08
2023-03-21T22:35:56.759Z,54.05
2023-03-21T22:38:28.179Z,53.88
2023-03-21T22:40:59.199Z,53.85
2023-03-21T22:43:30.111Z,53.88
2023-03-21T22:46:00.232Z,53.72
2023-03-21T22:48:30.299Z,53.63
2023-03-21T22:50:59.113Z,53.57
2023-03-21T22:53:26.442Z,53.44
2023-03-21T22:55:54.285Z,53.55
2023-03-21T22:58:26.598Z,53.51
2023-03-21T23:00:56.765Z,53.40
2023-03-21T23:03:23.948Z,53.32
2023-03-21T23:05:51.200Z,53.29
2023-03-21T23:08:21.931Z,53.51
2023-03-21T23:10:49.056Z,53.43
2023-03-21T23:13:16.067Z,53.59
2023-03-21T23:15:43.616Z,53.20
2023-03-21T23:18:11.143Z,53.24
2023-03-21T23:20:42.189Z,53.50
2023-03-21T23:23:12.336Z,53.46
2023-03-21T23:25:42.032Z,53.33
2023-03-21T23:28:12.769Z,53.25
2023-03-21T23:30:40.321Z,53.30
2023-03-21T23:33:07.768Z,53.25
2023-03-21T23:35:38.522Z,53.37
2023-03-21T23:38:06.144Z,53.37
2023-03-21T23:40:33.196Z,53.26
2023-03-21T23:43:03.290Z,53.21
2023-03-21T23:45:33.325Z,53.49
2023-03-21T23:48:01.077Z,53.54
2023-03-21T23:50:33.841Z,53.34
2023-03-21T23:53:01.073Z,53.52
2023-03-21T23:55:31.899Z,53.59
2023-03-21T23:57:59.682Z,53.54
